createdAt,value
2024-05-09T00:00:29.898Z,81.91
2024-05-09T00:01:20.668Z,81.71
2024-05-09T00:02:20.663Z,81.29
2024-05-09T00:03:20.605Z,81.29
2024-05-09T00:04:20.710Z,81.20
2024-05-09T00:05:20.610Z,81.50
2024-05-09T00:06:20.518Z,81.60
2024-05-09T00:07:20.509Z,81.50
2024-05-09T00:08:20.559Z,81.71
2024-05-09T00:09:20.478Z,82.05
2024-05-09T00:10:28.819Z,82.15
2024-05-09T00:11:20.821Z,82.56
2024-05-09T00:12:20.618Z,82.77
2024-05-09T00:13:20.435Z,83.18
2024-05-09T00:14:20.474Z,83.69
2024-05-09T00:15:20.407Z,83.59
2024-05-09T00:16:20.414Z,83.80
2024-05-09T00:17:20.504Z,83.90
2024-05-09T00:18:20.562Z,84.10
2024-05-09T00:19:20.584Z,84.25
2024-05-09T00:20:27.812Z,84.55
2024-05-09T00:21:20.380Z,84.66
2024-05-09T00:22:20.323Z,84.76
2024-05-09T00:23:20.355Z,85.00
2024-05-09T00:24:20.302Z,85.31
2024-05-09T00:25:20.301Z,85.62
2024-05-09T00:26:20.363Z,85.93
2024-05-09T00:27:20.299Z,85.93
2024-05-09T00:28:20.256Z,86.03
2024-05-09T00:29:20.273Z,86.13
2024-05-09T00:30:27.988Z,86.13
2024-05-09T00:31:20.256Z,86.13
2024-05-09T00:32:20.383Z,85.82
2024-05-09T00:33:20.568Z,85.62
2024-05-09T00:34:20.309Z,85.21
2024-05-09T00:35:20.216Z,84.96
2024-05-09T00:36:20.165Z,85.06
2024-05-09T00:37:20.188Z,85.17
2024-05-09T00:38:20.176Z,84.76
2024-05-09T00:39:20.142Z,84.76
2024-05-09T00:40:30.745Z,84.66
2024-05-09T00:41:20.207Z,84.76
2024-05-09T00:42:20.142Z,84.86
2024-05-09T00:43:20.102Z,84.86
2024-05-09T00:44:20.169Z,84.86
2024-05-09T00:45:20.091Z,84.66
2024-05-09T00:46:20.063Z,84.66
2024-05-09T00:47:20.357Z,84.96
2024-05-09T00:48:21.557Z,84.96
2024-05-09T00:49:20.142Z,85.06
2024-05-09T00:50:29.343Z,85.38
2024-05-09T00:51:20.105Z,86.03
2024-05-09T00:52:19.992Z,86.03
2024-05-09T00:53:20.062Z,86.24
2024-05-09T00:54:19.984Z,86.54
2024-05-09T00:55:19.959Z,86.54
2024-05-09T00:56:19.994Z,86.71
2024-05-09T00:57:19.957Z,86.60
2024-05-09T00:58:19.968Z,86.71
2024-05-09T00:59:19.953Z,86.71
2024-05-09T01:00:27.190Z,86.71
2024-05-09T01:01:19.986Z,86.71
2024-05-09T01:02:19.979Z,86.50
2024-05-09T01:03:20.377Z,86.40
2024-05-09T01:04:19.944Z,86.19
2024-05-09T01:05:19.884Z,86.30
2024-05-09T01:06:19.851Z,86.71
2024-05-09T01:07:19.839Z,86.81
2024-05-09T01:08:19.906Z,86.91
2024-05-09T01:09:19.814Z,86.50
2024-05-09T01:10:27.613Z,86.81
2024-05-09T01:11:19.947Z,87.26
2024-05-09T01:12:19.960Z,87.16
2024-05-09T01:13:19.802Z,86.89
2024-05-09T01:14:19.835Z,87.61
2024-05-09T01:15:19.741Z,88.43
2024-05-09T01:16:19.731Z,89.09
2024-05-09T01:17:19.826Z,89.70
2024-05-09T01:18:19.782Z,90.01
2024-05-09T01:19:19.863Z,90.22
2024-05-09T01:20:23.029Z,90.53
2024-05-09T01:21:19.774Z,90.53
2024-05-09T01:22:19.700Z,90.42
2024-05-09T01:23:19.712Z,90.73
2024-05-09T01:24:19.674Z,90.59
2024-05-09T01:25:19.641Z,90.80
2024-05-09T01:26:19.675Z,90.28
2024-05-09T01:27:19.631Z,90.18
2024-05-09T01:28:19.599Z,90.18
2024-05-09T01:29:19.664Z,89.97
2024-05-09T01:30:24.363Z,89.97
2024-05-09T01:31:19.563Z,90.12
2024-05-09T01:32:19.626Z,90.73
2024-05-09T01:33:19.754Z,90.83
2024-05-09T01:34:19.587Z,91.04
2024-05-09T01:35:19.546Z,91.35
2024-05-09T01:36:19.502Z,91.35
2024-05-09T01:37:19.490Z,91.45
2024-05-09T01:38:19.652Z,91.45
2024-05-09T01:39:19.473Z,91.86
2024-05-09T01:40:25.317Z,91.76
2024-05-09T01:41:19.533Z,91.86
2024-05-09T01:42:19.460Z,91.97
2024-05-09T01:43:19.439Z,91.97
2024-05-09T01:44:19.437Z,91.76
2024-05-09T01:45:19.399Z,91.97
2024-05-09T01:46:19.464Z,91.97
2024-05-09T01:47:19.576Z,92.07
2024-05-09T01:48:19.600Z,92.07
2024-05-09T01:49:19.634Z,91.93
2024-05-09T01:50:28.943Z,91.82
2024-05-09T01:51:19.359Z,91.93
2024-05-09T01:52:19.327Z,91.82
2024-05-09T01:53:19.363Z,91.97
2024-05-09T01:54:19.305Z,92.03
2024-05-09T01:55:19.306Z,92.17
2024-05-09T01:56:19.368Z,92.07
2024-05-09T01:57:19.288Z,92.38
2024-05-09T01:58:19.297Z,92.69
2024-05-09T01:59:19.299Z,92.79
2024-05-09T02:00:30.154Z,92.89
2024-05-09T02:01:19.261Z,93.10
2024-05-09T02:02:19.432Z,93.10
2024-05-09T02:03:19.456Z,93.10
2024-05-09T02:04:19.693Z,93.30
2024-05-09T02:05:19.358Z,93.20
2024-05-09T02:06:19.196Z,93.20
2024-05-09T02:07:19.191Z,93.40
2024-05-09T02:08:19.564Z,93.61
2024-05-09T02:09:19.135Z,93.51
2024-05-09T02:10:26.154Z,93.65
2024-05-09T02:11:19.265Z,93.86
2024-05-09T02:12:19.266Z,94.37
2024-05-09T02:13:19.118Z,94.48
2024-05-09T02:14:19.105Z,94.99
2024-05-09T02:15:19.100Z,95.30
2024-05-09T02:16:19.105Z,95.50
2024-05-09T02:17:19.196Z,95.71
2024-05-09T02:18:19.173Z,95.81
2024-05-09T02:19:19.196Z,95.92
2024-05-09T02:20:29.752Z,96.12
2024-05-09T02:21:19.032Z,96.22
2024-05-09T02:22:19.006Z,96.12
2024-05-09T02:23:19.049Z,96.33
2024-05-09T02:24:18.977Z,96.33
2024-05-09T02:25:18.989Z,96.12
2024-05-09T02:26:19.032Z,96.33
2024-05-09T02:27:18.942Z,96.64
2024-05-09T02:28:18.932Z,96.94
2024-05-09T02:29:19.120Z,96.73
2024-05-09T02:30:26.311Z,96.64
2024-05-09T02:31:18.909Z,96.94
2024-05-09T02:32:19.083Z,97.15
2024-05-09T02:33:19.142Z,97.15
2024-05-09T02:34:19.017Z,97.15
2024-05-09T02:35:18.916Z,97.30
2024-05-09T02:36:18.874Z,97.30
2024-05-09T02:37:18.835Z,97.40
2024-05-09T02:38:18.857Z,97.71
2024-05-09T02:39:18.822Z,97.50
2024-05-09T02:40:25.625Z,97.61
2024-05-09T02:41:18.880Z,97.61
2024-05-09T02:42:18.783Z,97.71
2024-05-09T02:43:18.765Z,97.91
2024-05-09T02:44:18.805Z,98.12
2024-05-09T02:45:18.737Z,98.33
2024-05-09T02:46:18.756Z,98.22
2024-05-09T02:47:18.756Z,98.22
2024-05-09T02:48:18.869Z,98.33
2024-05-09T02:49:18.877Z,98.12
2024-05-09T02:50:26.617Z,98.12
2024-05-09T02:51:18.719Z,98.43
2024-05-09T02:52:18.680Z,98.53
2024-05-09T02:53:18.719Z,98.43
2024-05-09T02:54:18.649Z,98.63
2024-05-09T02:55:18.626Z,98.63
2024-05-09T02:56:18.667Z,98.74
2024-05-09T02:57:18.614Z,98.43
2024-05-09T02:58:18.594Z,98.33
2024-05-09T02:59:18.741Z,98.43
2024-05-09T03:00:22.957Z,98.53
2024-05-09T03:01:18.598Z,98.53
2024-05-09T03:02:18.622Z,98.84
2024-05-09T03:03:18.793Z,99.05
2024-05-09T03:04:18.590Z,98.94
2024-05-09T03:05:18.595Z,98.74
2024-05-09T03:06:18.502Z,98.63
2024-05-09T03:07:20.191Z,98.53
2024-05-09T03:08:18.527Z,98.63
2024-05-09T03:09:18.473Z,98.43
2024-05-09T03:10:25.093Z,98.43
2024-05-09T03:11:18.490Z,98.43
2024-05-09T03:12:18.463Z,98.22
2024-05-09T03:13:18.455Z,98.43
2024-05-09T03:14:18.475Z,98.74
2024-05-09T03:15:18.432Z,99.05
2024-05-09T03:16:18.442Z,99.05
2024-05-09T03:17:18.594Z,99.46
2024-05-09T03:18:18.458Z,98.74
2024-05-09T03:19:18.586Z,98.63
2024-05-09T03:20:23.770Z,98.63
2024-05-09T03:21:18.409Z,98.43
2024-05-09T03:22:18.335Z,98.74
2024-05-09T03:23:18.370Z,99.05
2024-05-09T03:24:18.311Z,99.15
2024-05-09T03:25:18.323Z,99.05
2024-05-09T03:26:18.345Z,99.05
2024-05-09T03:27:18.296Z,98.53
2024-05-09T03:28:18.260Z,98.43
2024-05-09T03:29:18.323Z,98.53
2024-05-09T03:30:29.308Z,98.63
2024-05-09T03:31:18.302Z,98.74
2024-05-09T03:32:18.339Z,98.53
2024-05-09T03:33:20.008Z,98.33
2024-05-09T03:34:18.203Z,98.12
2024-05-09T03:35:18.207Z,98.53
2024-05-09T03:36:18.180Z,98.74
2024-05-09T03:37:18.162Z,98.84
2024-05-09T03:38:18.476Z,98.84
2024-05-09T03:39:18.134Z,99.15
2024-05-09T03:40:23.509Z,99.15
2024-05-09T03:41:18.139Z,99.05
2024-05-09T03:42:18.114Z,98.94
2024-05-09T03:43:18.130Z,98.84
2024-05-09T03:44:18.184Z,98.74
2024-05-09T03:45:18.062Z,98.33
2024-05-09T03:46:18.115Z,98.33
2024-05-09T03:47:18.127Z,98.53
2024-05-09T03:48:18.219Z,98.63
2024-05-09T03:49:18.220Z,98.63
2024-05-09T03:50:25.763Z,98.43
2024-05-09T03:51:18.025Z,98.43
2024-05-09T03:52:17.986Z,98.33
2024-05-09T03:53:18.089Z,98.22
2024-05-09T03:54:17.972Z,98.43
2024-05-09T03:55:17.975Z,98.53
2024-05-09T03:56:17.992Z,98.84
2024-05-09T03:57:17.957Z,99.05
2024-05-09T03:58:17.930Z,98.74
2024-05-09T03:59:17.983Z,98.84
2024-05-09T04:00:26.048Z,98.94
2024-05-09T04:01:17.921Z,98.94
2024-05-09T04:02:17.964Z,98.02
2024-05-09T04:03:18.126Z,97.91
2024-05-09T04:04:17.894Z,98.43
2024-05-09T04:05:17.867Z,98.84
2024-05-09T04:06:17.856Z,98.43
2024-05-09T04:07:17.780Z,98.43
2024-05-09T04:08:17.824Z,98.94
2024-05-09T04:09:17.738Z,99.25
2024-05-09T04:10:27.321Z,99.46
2024-05-09T04:11:17.971Z,99.56
2024-05-09T04:12:17.912Z,99.66
2024-05-09T04:13:17.772Z,99.77
2024-05-09T04:14:17.761Z,99.97
2024-05-09T04:15:17.731Z,99.87
2024-05-09T04:16:17.771Z,99.77
2024-05-09T04:17:17.741Z,99.87
2024-05-09T04:18:17.811Z,99.99
2024-05-09T04:19:17.947Z,99.97
2024-05-09T04:20:28.746Z,99.77
2024-05-09T04:21:17.655Z,99.99
2024-05-09T04:22:17.612Z,99.99
2024-05-09T04:23:17.711Z,99.99
2024-05-09T04:24:17.584Z,99.99
2024-05-09T04:25:17.575Z,99.99
2024-05-09T04:26:17.590Z,99.99
2024-05-09T04:27:17.567Z,99.99
2024-05-09T04:28:17.560Z,99.99
2024-05-09T04:29:17.586Z,99.99
2024-05-09T04:30:25.742Z,99.99
2024-05-09T04:31:17.524Z,99.99
2024-05-09T04:32:17.558Z,99.99
2024-05-09T04:33:17.710Z,99.99
2024-05-09T04:34:17.585Z,99.99
2024-05-09T04:35:17.635Z,99.99
2024-05-09T04:36:17.451Z,99.99
2024-05-09T04:37:17.482Z,99.99
2024-05-09T04:38:17.485Z,99.99
2024-05-09T04:39:17.409Z,99.99
2024-05-09T04:40:27.624Z,99.99
2024-05-09T04:41:17.470Z,99.99
2024-05-09T04:42:17.388Z,99.99
2024-05-09T04:43:17.604Z,99.99
2024-05-09T04:44:17.393Z,99.99
2024-05-09T04:45:17.342Z,99.99
2024-05-09T04:46:17.336Z,99.99
2024-05-09T04:47:17.496Z,99.99
2024-05-09T04:48:17.520Z,99.99
2024-05-09T04:49:17.533Z,99.99
2024-05-09T04:50:24.706Z,99.99
2024-05-09T04:51:17.320Z,99.99
2024-05-09T04:52:17.274Z,99.99
2024-05-09T04:53:17.687Z,99.99
2024-05-09T04:54:26.487Z,99.99
2024-05-09T04:55:17.251Z,99.99
2024-05-09T04:56:17.285Z,99.99
2024-05-09T04:57:17.235Z,99.99
2024-05-09T04:58:17.231Z,99.99
2024-05-09T04:59:17.220Z,99.99
2024-05-09T05:00:21.987Z,99.99
2024-05-09T05:01:17.263Z,99.99
2024-05-09T05:02:17.254Z,99.99
2024-05-09T05:03:17.679Z,99.99
2024-05-09T05:04:17.249Z,99.99
2024-05-09T05:05:17.327Z,99.99
2024-05-09T05:06:17.132Z,99.99
2024-05-09T05:07:17.119Z,99.99
2024-05-09T05:08:18.216Z,99.99
2024-05-09T05:09:17.157Z,99.99
2024-05-09T05:10:25.098Z,99.99
2024-05-09T05:11:17.144Z,99.99
2024-05-09T05:12:17.148Z,99.99
2024-05-09T05:13:18.508Z,99.89
2024-05-09T05:14:17.110Z,99.68
2024-05-09T05:15:17.007Z,99.43
2024-05-09T05:16:17.027Z,99.33
2024-05-09T05:17:17.036Z,99.33
2024-05-09T05:18:17.198Z,99.22
2024-05-09T05:19:17.790Z,99.12
2024-05-09T05:20:24.515Z,99.12
2024-05-09T05:21:17.005Z,99.12
2024-05-09T05:22:16.945Z,98.92
2024-05-09T05:23:17.010Z,98.67
2024-05-09T05:24:16.937Z,98.57
2024-05-09T05:25:16.899Z,98.05
2024-05-09T05:26:16.951Z,97.85
2024-05-09T05:27:16.884Z,97.95
2024-05-09T05:28:16.907Z,98.05
2024-05-09T05:29:20.203Z,98.05
2024-05-09T05:30:21.490Z,98.16
2024-05-09T05:31:16.921Z,97.95
2024-05-09T05:32:17.104Z,97.54
2024-05-09T05:33:17.006Z,97.19
2024-05-09T05:34:16.830Z,97.19
2024-05-09T05:35:16.808Z,97.29
2024-05-09T05:36:16.804Z,97.19
2024-05-09T05:37:16.788Z,96.88
2024-05-09T05:38:16.834Z,96.57
2024-05-09T05:39:16.794Z,96.88
2024-05-09T05:40:27.583Z,97.24
2024-05-09T05:41:16.776Z,97.55
2024-05-09T05:42:16.729Z,97.14
2024-05-09T05:43:16.726Z,96.42
2024-05-09T05:44:16.776Z,95.70
2024-05-09T05:45:16.819Z,95.29
2024-05-09T05:46:16.680Z,95.50
2024-05-09T05:47:16.735Z,95.29
2024-05-09T05:48:17.457Z,94.74
2024-05-09T05:49:16.765Z,94.95
2024-05-09T05:50:24.701Z,95.66
2024-05-09T05:51:16.670Z,97.61
2024-05-09T05:52:16.624Z,97.71
2024-05-09T05:53:16.723Z,95.87
2024-05-09T05:54:16.599Z,94.84
2024-05-09T05:55:24.524Z,94.64
2024-05-09T05:56:16.657Z,94.33
2024-05-09T05:57:16.581Z,94.23
2024-05-09T05:58:16.561Z,94.33
2024-05-09T05:59:16.615Z,94.49
2024-05-09T06:00:26.034Z,94.39
2024-05-09T06:01:16.603Z,94.29
2024-05-09T06:02:16.582Z,94.18
2024-05-09T06:03:16.626Z,94.08
2024-05-09T06:04:16.505Z,94.08
2024-05-09T06:05:16.491Z,93.98
2024-05-09T06:06:16.451Z,93.77
2024-05-09T06:07:16.441Z,93.77
2024-05-09T06:08:16.548Z,93.57
2024-05-09T06:09:16.418Z,93.06
2024-05-09T06:10:21.506Z,92.91
2024-05-09T06:11:16.498Z,92.91
2024-05-09T06:12:16.454Z,92.91
2024-05-09T06:13:16.366Z,92.71
2024-05-09T06:14:16.434Z,93.12
2024-05-09T06:15:16.407Z,93.22
2024-05-09T06:16:16.335Z,93.18
2024-05-09T06:17:16.473Z,92.25
2024-05-09T06:18:16.484Z,91.33
2024-05-09T06:19:16.376Z,91.13
2024-05-09T06:20:23.426Z,91.13
2024-05-09T06:21:16.516Z,91.03
2024-05-09T06:22:16.333Z,91.33
2024-05-09T06:23:16.408Z,91.39
2024-05-09T06:24:16.251Z,91.50
2024-05-09T06:25:16.290Z,91.60
2024-05-09T06:26:16.294Z,92.01
2024-05-09T06:27:16.215Z,91.60
2024-05-09T06:28:16.234Z,91.76
2024-05-09T06:29:16.231Z,91.56
2024-05-09T06:30:25.706Z,91.46
2024-05-09T06:31:16.185Z,90.84
2024-05-09T06:32:16.342Z,90.74
2024-05-09T06:33:16.888Z,90.64
2024-05-09T06:34:16.386Z,90.33
2024-05-09T06:35:16.167Z,89.98
2024-05-09T06:36:16.123Z,88.45
2024-05-09T06:37:16.107Z,88.24
2024-05-09T06:38:16.194Z,87.73
2024-05-09T06:39:16.083Z,85.18
2024-05-09T06:40:21.387Z,85.49
2024-05-09T06:41:16.114Z,85.49
2024-05-09T06:42:16.052Z,85.28
2024-05-09T06:43:18.314Z,84.33
2024-05-09T06:44:16.061Z,83.10
2024-05-09T06:45:16.056Z,83.51
2024-05-09T06:46:16.002Z,83.61
2024-05-09T06:47:16.029Z,83.81
2024-05-09T06:48:16.225Z,83.51
2024-05-09T06:49:16.176Z,83.92
2024-05-09T06:50:23.406Z,85.14
2024-05-09T06:51:16.029Z,85.04
2024-05-09T06:52:16.002Z,84.74
2024-05-09T06:53:16.071Z,84.69
2024-05-09T06:54:15.920Z,86.33
2024-05-09T06:55:16.004Z,85.61
2024-05-09T06:56:15.937Z,85.10
2024-05-09T06:57:15.883Z,84.59
2024-05-09T06:58:15.874Z,84.25
2024-05-09T06:59:15.927Z,83.84
2024-05-09T07:00:22.990Z,81.49
2024-05-09T07:01:15.866Z,81.49
2024-05-09T07:02:16.011Z,80.64
2024-05-09T07:03:17.905Z,80.54
2024-05-09T07:04:15.971Z,80.84
2024-05-09T07:05:15.966Z,81.56
2024-05-09T07:06:15.857Z,82.27
2024-05-09T07:07:15.803Z,81.15
2024-05-09T07:08:16.004Z,80.29
2024-05-09T07:09:15.791Z,80.80
2024-05-09T07:10:22.041Z,80.70
2024-05-09T07:11:15.782Z,81.52
2024-05-09T07:12:15.822Z,82.13
2024-05-09T07:13:16.070Z,83.72
2024-05-09T07:14:15.780Z,83.31
2024-05-09T07:15:15.700Z,84.43
2024-05-09T07:16:15.678Z,83.11
2024-05-09T07:17:15.758Z,83.21
2024-05-09T07:18:17.396Z,82.90
2024-05-09T07:19:15.823Z,83.37
2024-05-09T07:20:23.174Z,83.78
2024-05-09T07:21:15.773Z,82.56
2024-05-09T07:22:15.615Z,83.37
2024-05-09T07:23:16.067Z,83.23
2024-05-09T07:24:15.620Z,80.79
2024-05-09T07:25:15.591Z,80.49
2024-05-09T07:26:15.641Z,80.18
2024-05-09T07:27:15.559Z,81.30
2024-05-09T07:28:15.687Z,80.76
2024-05-09T07:29:15.603Z,80.15
2024-05-09T07:30:22.944Z,80.04
2024-05-09T07:31:15.520Z,78.52
2024-05-09T07:32:15.694Z,78.31
2024-05-09T07:33:15.863Z,78.72
2024-05-09T07:34:15.620Z,79.23
2024-05-09T07:35:15.676Z,79.53
2024-05-09T07:36:15.510Z,79.09
2024-05-09T07:37:15.482Z,78.48
2024-05-09T07:38:15.463Z,77.67
2024-05-09T07:39:15.465Z,76.92
2024-05-09T07:40:24.803Z,76.51
2024-05-09T07:41:15.473Z,76.61
2024-05-09T07:42:15.383Z,75.46
2024-05-09T07:43:15.427Z,75.05
2024-05-09T07:44:15.407Z,75.67
2024-05-09T07:45:30.117Z,74.85
2024-05-09T07:48:28.896Z,76.75
2024-05-09T07:52:22.584Z,75.83
2024-05-09T07:53:42.103Z,75.63
2024-05-09T07:53:53.428Z,74.10
2024-05-09T07:54:45.046Z,73.50
2024-05-09T07:55:45.141Z,74.17
2024-05-09T07:56:44.999Z,74.38
2024-05-09T07:57:44.939Z,74.38
2024-05-09T07:58:45.671Z,75.19
2024-05-09T07:59:44.895Z,74.17
2024-05-09T08:00:45.047Z,74.68
2024-05-09T08:01:45.008Z,74.38
2024-05-09T08:02:44.866Z,75.39
2024-05-09T08:03:45.055Z,76.20
2024-05-09T08:04:44.914Z,76.06
2024-05-09T08:05:44.855Z,75.86
2024-05-09T08:06:44.826Z,76.06
2024-05-09T08:07:44.770Z,75.96
2024-05-09T08:08:44.733Z,76.06
2024-05-09T08:09:44.753Z,77.59
2024-05-09T08:10:44.862Z,77.99
2024-05-09T08:11:44.800Z,79.61
2024-05-09T08:12:44.697Z,79.00
2024-05-09T08:13:44.766Z,77.89
2024-05-09T08:14:44.678Z,76.78
2024-05-09T08:15:44.971Z,76.57
2024-05-09T08:16:44.658Z,75.12
2024-05-09T08:17:44.811Z,74.91
2024-05-09T08:18:44.768Z,74.10
2024-05-09T08:19:44.713Z,72.04
2024-05-09T08:20:44.604Z,72.75
2024-05-09T08:21:44.662Z,72.55
2024-05-09T08:22:44.565Z,72.85
2024-05-09T08:23:44.558Z,71.70
2024-05-09T08:24:44.582Z,72.72
2024-05-09T08:25:44.540Z,74.13
2024-05-09T08:26:44.546Z,75.76
2024-05-09T08:27:44.533Z,71.09
2024-05-09T08:28:44.496Z,70.08
2024-05-09T08:29:44.549Z,69.74
2024-05-09T08:30:44.790Z,70.76
2024-05-09T08:31:44.713Z,69.85
2024-05-09T08:32:44.569Z,70.15
2024-05-09T08:33:44.677Z,70.15
2024-05-09T08:34:44.618Z,69.41
2024-05-09T08:35:44.442Z,69.34
2024-05-09T08:36:44.501Z,68.60
2024-05-09T08:37:44.503Z,67.59
2024-05-09T08:38:44.419Z,68.19
2024-05-09T08:39:44.414Z,71.03
2024-05-09T08:40:44.618Z,72.78
2024-05-09T08:41:44.391Z,70.36
2024-05-09T08:42:44.401Z,68.53
2024-05-09T08:43:44.368Z,67.01
2024-05-09T08:44:44.317Z,68.43
2024-05-09T08:45:45.433Z,67.72
2024-05-09T08:46:44.296Z,66.71
2024-05-09T08:47:44.394Z,66.78
2024-05-09T08:48:44.532Z,63.34
2024-05-09T08:49:44.317Z,64.12
2024-05-09T08:50:45.343Z,62.60
2024-05-09T08:51:44.290Z,63.71
2024-05-09T08:52:44.237Z,65.03
2024-05-09T08:53:44.211Z,62.90
2024-05-09T08:54:44.272Z,62.60
2024-05-09T08:55:44.669Z,63.92
2024-05-09T08:56:44.194Z,65.03
2024-05-09T08:57:44.212Z,64.59
2024-05-09T08:58:44.172Z,62.16
2024-05-09T08:59:44.184Z,61.16
2024-05-09T09:00:44.857Z,64.06
2024-05-09T09:01:44.325Z,63.45
2024-05-09T09:02:44.574Z,62.64
2024-05-09T09:03:44.310Z,62.85
2024-05-09T09:04:44.251Z,64.26
2024-05-09T09:05:44.129Z,64.46
2024-05-09T09:06:44.328Z,64.87
2024-05-09T09:07:44.064Z,61.83
2024-05-09T09:08:44.059Z,59.81
2024-05-09T09:09:44.320Z,57.09
2024-05-09T09:10:44.218Z,58.60
2024-05-09T09:11:44.068Z,59.11
2024-05-09T09:12:44.098Z,58.30
2024-05-09T09:13:43.997Z,56.58
2024-05-09T09:14:44.025Z,55.27
2024-05-09T09:15:44.070Z,56.78
2024-05-09T09:16:43.977Z,58.09
2024-05-09T09:17:44.062Z,56.38
2024-05-09T09:18:44.252Z,58.63
2024-05-09T09:19:44.030Z,57.89
2024-05-09T09:20:44.118Z,59.51
2024-05-09T09:21:44.022Z,61.05
2024-05-09T09:22:43.927Z,57.59
2024-05-09T09:23:43.946Z,57.69
2024-05-09T09:24:43.927Z,56.27
2024-05-09T09:25:43.889Z,55.85
2024-05-09T09:26:43.870Z,56.35
2024-05-09T09:27:43.931Z,56.05
2024-05-09T09:28:43.895Z,59.48
2024-05-09T09:29:43.843Z,59.69
2024-05-09T09:30:43.974Z,59.71
2024-05-09T09:31:43.797Z,59.31
2024-05-09T09:32:43.931Z,61.23
2024-05-09T09:33:44.136Z,60.02
2024-05-09T09:34:43.943Z,59.58
2024-05-09T09:35:43.883Z,58.27
2024-05-09T09:36:43.846Z,59.58
2024-05-09T09:37:43.806Z,59.86
2024-05-09T09:38:43.844Z,61.17
2024-05-09T09:39:43.779Z,64.20
2024-05-09T09:40:48.277Z,59.66
2024-05-09T09:41:43.688Z,59.86
2024-05-09T09:42:43.698Z,61.27
2024-05-09T09:43:43.696Z,61.98
2024-05-09T09:44:47.731Z,62.48
2024-05-09T09:45:43.917Z,62.59
2024-05-09T09:46:43.645Z,61.77
2024-05-09T09:47:43.819Z,61.27
2024-05-09T09:48:43.707Z,62.68
2024-05-09T09:49:43.694Z,62.15
2024-05-09T09:50:43.583Z,61.85
2024-05-09T09:51:43.744Z,58.52
2024-05-09T09:52:43.565Z,58.72
2024-05-09T09:53:43.583Z,60.74
2024-05-09T09:54:43.567Z,60.84
2024-05-09T09:55:43.581Z,58.42
2024-05-09T09:56:43.517Z,58.32
2024-05-09T09:57:43.599Z,58.12
2024-05-09T09:58:43.496Z,58.29
2024-05-09T09:59:43.531Z,59.40
2024-05-09T10:00:43.752Z,58.69
2024-05-09T10:01:43.558Z,58.09
2024-05-09T10:02:43.468Z,57.38
2024-05-09T10:03:43.664Z,55.26
2024-05-09T10:04:43.594Z,55.26
2024-05-09T10:05:46.301Z,53.96
2024-05-09T10:06:43.481Z,55.26
2024-05-09T10:07:43.429Z,54.48
2024-05-09T10:08:43.407Z,56.40
2024-05-09T10:09:43.448Z,56.63
2024-05-09T10:10:43.675Z,56.83
2024-05-09T10:11:49.097Z,56.23
2024-05-09T10:12:43.356Z,56.65
2024-05-09T10:13:43.362Z,56.96
2024-05-09T10:14:43.315Z,56.96
2024-05-09T10:15:43.390Z,57.26
2024-05-09T10:16:43.324Z,58.17
2024-05-09T10:17:43.464Z,58.58
2024-05-09T10:18:43.549Z,59.69
2024-05-09T10:19:43.344Z,56.56
2024-05-09T10:20:43.297Z,57.36
2024-05-09T10:21:43.329Z,57.03
2024-05-09T10:22:43.233Z,57.34
2024-05-09T10:23:43.228Z,57.91
2024-05-09T10:24:43.242Z,56.57
2024-05-09T10:25:43.236Z,55.57
2024-05-09T10:26:43.204Z,57.78
2024-05-09T10:27:43.209Z,58.36
2024-05-09T10:28:43.175Z,59.47
2024-05-09T10:29:43.162Z,60.28
2024-05-09T10:30:43.466Z,59.47
2024-05-09T10:31:43.256Z,57.56
2024-05-09T10:32:43.225Z,56.15
2024-05-09T10:33:43.187Z,56.55
2024-05-09T10:34:43.129Z,57.76
2024-05-09T10:35:43.087Z,58.97
2024-05-09T10:36:43.161Z,58.67
2024-05-09T10:37:43.064Z,58.47
2024-05-09T10:38:43.148Z,57.96
2024-05-09T10:39:43.135Z,57.86
2024-05-09T10:40:43.103Z,58.74
2024-05-09T10:41:43.019Z,59.04
2024-05-09T10:42:43.115Z,60.05
2024-05-09T10:43:43.043Z,55.08
2024-05-09T10:44:42.986Z,54.28
2024-05-09T10:45:43.033Z,54.41
2024-05-09T10:46:42.985Z,55.01
2024-05-09T10:47:43.073Z,55.71
2024-05-09T10:48:43.179Z,56.40
2024-05-09T10:49:42.971Z,55.69
2024-05-09T10:50:42.919Z,54.10
2024-05-09T10:51:42.981Z,54.10
2024-05-09T10:52:42.922Z,55.11
2024-05-09T10:53:42.970Z,55.82
2024-05-09T10:54:42.944Z,57.12
2024-05-09T10:55:42.883Z,57.73
2024-05-09T10:56:42.877Z,55.21
2024-05-09T10:57:42.851Z,55.29
2024-05-09T10:58:42.898Z,54.18
2024-05-09T10:59:42.838Z,54.88
2024-05-09T11:00:42.951Z,54.28
2024-05-09T11:01:42.996Z,54.28
2024-05-09T11:02:43.192Z,53.27
2024-05-09T11:03:43.159Z,54.99
2024-05-09T11:04:42.953Z,53.67
2024-05-09T11:05:43.151Z,53.95
2024-05-09T11:06:42.856Z,55.46
2024-05-09T11:07:42.759Z,54.75
2024-05-09T11:08:42.737Z,53.95
2024-05-09T11:09:42.788Z,52.74
2024-05-09T11:10:42.813Z,51.84
2024-05-09T11:11:42.782Z,51.84
2024-05-09T11:12:42.731Z,51.03
2024-05-09T11:13:42.672Z,54.43
2024-05-09T11:14:42.652Z,53.63
2024-05-09T11:15:42.691Z,53.12
2024-05-09T11:16:42.662Z,53.32
2024-05-09T11:17:42.732Z,54.63
2024-05-09T11:18:42.811Z,55.43
2024-05-09T11:19:42.781Z,54.53
2024-05-09T11:20:42.748Z,54.13
2024-05-09T11:21:42.709Z,52.11
2024-05-09T11:22:42.573Z,52.51
2024-05-09T11:23:42.606Z,50.81
2024-05-09T11:24:42.620Z,50.83
2024-05-09T11:25:42.526Z,50.02
2024-05-09T11:26:42.508Z,52.14
2024-05-09T11:27:42.621Z,51.34
2024-05-09T11:28:42.522Z,51.43
2024-05-09T11:29:42.479Z,50.53
2024-05-09T11:30:42.534Z,51.26
2024-05-09T11:31:42.536Z,52.44
2024-05-09T11:32:42.569Z,51.03
2024-05-09T11:33:42.571Z,50.51
2024-05-09T11:34:42.518Z,49.50
2024-05-09T11:35:42.433Z,52.72
2024-05-09T11:36:42.522Z,52.22
2024-05-09T11:37:42.394Z,50.91
2024-05-09T11:38:42.396Z,51.31
2024-05-09T11:39:42.394Z,50.00
2024-05-09T11:40:42.511Z,50.10
2024-05-09T11:41:42.355Z,51.81
2024-05-09T11:42:42.344Z,50.93
2024-05-09T11:43:42.346Z,52.54
2024-05-09T11:44:42.318Z,53.45
2024-05-09T11:45:42.352Z,53.45
2024-05-09T11:46:42.315Z,53.32
2024-05-09T11:47:42.508Z,50.60
2024-05-09T11:48:42.531Z,50.51
2024-05-09T11:49:42.416Z,51.93
2024-05-09T11:50:42.273Z,51.73
2024-05-09T11:51:42.298Z,50.63
2024-05-09T11:52:42.225Z,51.54
2024-05-09T11:53:42.215Z,51.34
2024-05-09T11:54:42.254Z,49.82
2024-05-09T11:55:42.216Z,51.34
2024-05-09T11:56:42.165Z,51.64
2024-05-09T11:57:42.187Z,51.34
2024-05-09T11:58:42.205Z,49.52
2024-05-09T11:59:42.144Z,51.14
2024-05-09T12:00:42.221Z,50.93
2024-05-09T12:01:42.225Z,50.23
2024-05-09T12:02:42.115Z,48.92
2024-05-09T12:03:42.314Z,51.43
2024-05-09T12:04:42.434Z,50.13
2024-05-09T12:05:42.275Z,50.40
2024-05-09T12:06:42.127Z,50.10
2024-05-09T12:07:42.072Z,51.11
2024-05-09T12:08:42.061Z,50.81
2024-05-09T12:09:42.060Z,50.20
2024-05-09T12:10:42.188Z,52.62
2024-05-09T12:11:42.075Z,52.22
2024-05-09T12:12:42.024Z,55.11
2024-05-09T12:13:41.998Z,51.89
2024-05-09T12:14:41.988Z,52.69
2024-05-09T12:15:42.016Z,51.59
2024-05-09T12:16:42.035Z,52.39
2024-05-09T12:17:42.051Z,52.19
2024-05-09T12:18:42.009Z,50.48
2024-05-09T12:19:42.035Z,51.39
2024-05-09T12:20:41.958Z,49.98
2024-05-09T12:21:41.911Z,50.28
2024-05-09T12:22:41.894Z,49.48
2024-05-09T12:23:41.896Z,48.87
2024-05-09T12:24:41.882Z,52.49
2024-05-09T12:25:41.887Z,53.17
2024-05-09T12:26:41.839Z,50.96
2024-05-09T12:27:41.890Z,53.07
2024-05-09T12:28:41.816Z,51.26
2024-05-09T12:29:41.802Z,52.47
2024-05-09T12:30:42.330Z,51.56
2024-05-09T12:31:41.809Z,54.35
2024-05-09T12:32:41.870Z,53.65
2024-05-09T12:33:41.844Z,51.74
2024-05-09T12:34:41.819Z,54.96
2024-05-09T12:35:44.366Z,52.62
2024-05-09T12:36:41.747Z,52.32
2024-05-09T12:37:41.720Z,50.01
2024-05-09T12:38:41.710Z,48.90
2024-05-09T12:39:41.764Z,48.22
2024-05-09T12:40:41.950Z,48.63
2024-05-09T12:41:41.684Z,47.74
2024-05-09T12:42:41.802Z,49.95
2024-05-09T12:43:41.654Z,50.96
2024-05-09T12:44:41.652Z,49.77
2024-05-09T12:45:41.719Z,50.05
2024-05-09T12:46:41.652Z,48.77
2024-05-09T12:47:41.673Z,48.05
2024-05-09T12:48:41.791Z,49.27
2024-05-09T12:49:41.657Z,49.55
2024-05-09T12:50:42.072Z,48.67
2024-05-09T12:51:41.632Z,49.25
2024-05-09T12:52:41.577Z,54.28
2024-05-09T12:53:41.551Z,48.44
2024-05-09T12:54:41.596Z,47.86
2024-05-09T12:55:48.650Z,47.77
2024-05-09T12:56:41.518Z,49.07